Kettering, United Kingdom
Current Conditions -  °F | °C
As of 8:50 PM on Monday 24 Nov 2014 (Local Time) from EGXT Reporting Station
Haze Haze  
Wind Chill: 31°   Ceiling: Unl
Heat Index: 37°   Visibility: 5mi
Dew Point: 36°   Wind: 9mph
Humidity: 93%   Direction: 280°W
Pressure: 30.33"   Gusts: NA
Location:  52.44°N, 0.76°W
Report Text: EGXT 242050Z AUTO 28008KT 8000 BR NCD 03/02 Q1027
Loading
Personal Weather Stations






























Interactive Weather Map New forecast layout! Learn more

10-Day Weather Forecast

Advertisements
Track Severe Weather on mobile